CDT,Max TemperatureF,Mean TemperatureF,Min TemperatureF,Max Dew PointF,MeanDew PointF,Min DewpointF,Max Humidity, Mean Humidity, Min Humidity, Max Sea Level PressureIn, Mean Sea Level PressureIn, Min Sea Level PressureIn, Max VisibilityMiles, Mean VisibilityMiles, Min VisibilityMiles, Max Wind SpeedMPH, Mean Wind SpeedMPH, Max Gust SpeedMPH,PrecipitationIn, CloudCover, Events, WindDirDegrees
2013-4-1,48,42,35,34,20,11,76,45,24,30.31,30.22,30.03,10,10,10,16,12,25,0.00,3,,8
2013-4-2,52,40,30,22,18,16,60,43,27,30.36,30.31,30.26,10,10,10,12,6,,0.00,0,,75
2013-4-3,53,44,34,24,21,16,64,43,29,30.38,30.31,30.25,10,10,10,15,7,18,0.00,0,,78
2013-4-4,64,52,39,33,24,19,57,37,20,30.24,30.14,30.06,10,10,9,6,2,,0.00,1,,337
2013-4-5,71,56,42,40,36,32,71,48,31,30.18,30.05,29.86,10,10,8,18,5,24,0.00,0,,181
2013-4-6,78,67,57,46,42,36,52,43,26,29.85,29.73,29.62,10,10,10,23,15,37,0.00,1,,221
2013-4-7,75,60,46,55,48,42,94,65,33,29.86,29.76,29.66,10,8,2,17,4,25,0.70,5,Rain-Thunderstorm,140
2013-4-8,73,64,55,61,56,50,94,77,61,29.72,29.70,29.66,10,9,2,21,10,29,0.36,7,Rain-Thunderstorm,192
2013-4-9,73,66,54,63,59,51,90,71,64,29.78,29.70,29.64,10,8,0,20,9,44,0.59,8,Rain-Thunderstorm,154
2013-4-10,50,47,39,52,42,37,94,87,81,29.94,29.82,29.74,10,8,2,21,10,34,0.62,8,Rain-Thunderstorm,311
2013-4-11,42,38,35,35,28,25,86,67,51,29.82,29.77,29.73,10,10,10,17,11,28,0.00,8,,268
2013-4-12,54,44,35,32,28,24,72,60,43,30.04,29.90,29.78,10,10,10,15,9,22,0.00,5,,287
2013-4-13,64,50,37,40,35,30,86,58,39,30.08,29.93,29.73,10,10,10,12,4,22,0.00,2,,113
2013-4-14,75,65,57,54,46,33,75,53,39,29.70,29.56,29.47,10,10,7,24,14,38,0.00,4,Rain-Thunderstorm,215
2013-4-15,55,50,45,41,34,30,77,54,40,30.00,29.86,29.75,10,10,10,14,6,,0.01,7,Rain-Thunderstorm,355
2013-4-16,48,45,42,34,32,30,71,59,52,30.17,30.10,30.03,10,10,10,16,12,23,0.00,8,Rain,54
2013-4-17,52,49,46,50,46,35,94,89,63,30.09,29.83,29.66,10,6,2,13,8,17,0.45,8,Rain-Thunderstorm,58
2013-4-18,48,44,37,46,36,25,93,80,60,29.94,29.72,29.57,10,8,2,21,10,28,0.21,8,Rain-Thunderstorm,307
2013-4-19,54,44,34,25,23,19,67,47,27,30.11,29.99,29.92,10,10,10,20,13,29,0.00,3,,299
2013-4-20,57,46,34,31,27,22,72,48,35,30.27,30.19,30.13,10,10,10,14,5,21,0.00,2,,77
2013-4-21,69,57,48,42,37,30,57,45,37,30.23,30.16,30.10,10,10,10,21,10,26,0.00,3,,170
2013-4-22,66,59,50,48,42,37,86,56,42,30.13,30.03,29.91,10,10,9,14,10,21,0.00,3,Rain,183
2013-4-23,46,42,35,46,33,30,89,83,70,30.20,30.10,30.01,10,7,2,17,12,31,0.54,8,Rain,350
2013-4-24,55,42,30,32,27,21,86,54,31,30.28,30.21,30.00,10,10,10,14,7,17,0.00,2,,268
2013-4-25,69,54,39,37,34,27,79,47,27,30.31,30.24,30.14,10,10,10,13,5,21,0.00,1,,200
2013-4-26,60,54,50,48,45,36,89,76,42,30.24,30.20,30.16,10,9,5,16,8,26,0.10,8,Rain,149
2013-4-27,55,52,48,48,47,46,93,85,72,30.21,30.11,30.01,10,9,4,9,5,,0.10,7,Rain,75
2013-4-28,75,57,39,54,46,39,100,80,43,30.01,29.93,29.79,10,5,0,15,2,22,0.00,0,Fog,192
2013-4-29,84,72,61,62,56,51,72,57,41,29.80,29.71,29.61,10,10,10,22,10,33,0.00,0,,201
2013-4-30,84,76,69,55,52,48,59,43,32,29.82,29.72,29.64,10,10,10,22,16,31,0.00,0,,195